sensor_id;sensor_type;location;lat;lon;timestamp;P1;durP1;ratioP1;P2;durP2;ratioP2
47882;SDS011;37739;50.350;7.578;2023-08-06T00:01:21;2.00;;;1.90;;
47882;SDS011;37739;50.350;7.578;2023-08-06T00:03:50;3.20;;;2.30;;
47882;SDS011;37739;50.350;7.578;2023-08-06T00:06:15;2.57;;;2.20;;
47882;SDS011;37739;50.350;7.578;2023-08-06T00:08:40;2.63;;;2.33;;
47882;SDS011;37739;50.350;7.578;2023-08-06T00:11:08;2.80;;;2.57;;
47882;SDS011;37739;50.350;7.578;2023-08-06T00:13:37;2.90;;;2.33;;
47882;SDS011;37739;50.350;7.578;2023-08-06T00:16:09;2.70;;;2.50;;
47882;SDS011;37739;50.350;7.578;2023-08-06T00:18:35;2.23;;;2.03;;
47882;SDS011;37739;50.350;7.578;2023-08-06T00:21:03;2.83;;;2.40;;
47882;SDS011;37739;50.350;7.578;2023-08-06T00:23:29;2.33;;;2.07;;
47882;SDS011;37739;50.350;7.578;2023-08-06T00:25:56;3.67;;;2.93;;
47882;SDS011;37739;50.350;7.578;2023-08-06T00:28:26;2.50;;;2.27;;
47882;SDS011;37739;50.350;7.578;2023-08-06T00:30:55;2.87;;;2.67;;
47882;SDS011;37739;50.350;7.578;2023-08-06T00:33:25;2.43;;;2.23;;
47882;SDS011;37739;50.350;7.578;2023-08-06T00:35:50;3.13;;;2.87;;
47882;SDS011;37739;50.350;7.578;2023-08-06T00:38:16;2.80;;;2.47;;
47882;SDS011;37739;50.350;7.578;2023-08-06T00:40:44;3.53;;;2.60;;
47882;SDS011;37739;50.350;7.578;2023-08-06T00:43:09;2.60;;;2.40;;
47882;SDS011;37739;50.350;7.578;2023-08-06T00:45:37;3.37;;;2.80;;
47882;SDS011;37739;50.350;7.578;2023-08-06T00:48:05;2.90;;;2.70;;
47882;SDS011;37739;50.350;7.578;2023-08-06T00:50:32;2.83;;;2.13;;
47882;SDS011;37739;50.350;7.578;2023-08-06T00:52:57;2.50;;;2.30;;
47882;SDS011;37739;50.350;7.578;2023-08-06T00:55:23;3.07;;;2.77;;
47882;SDS011;37739;50.350;7.578;2023-08-06T00:57:50;3.27;;;3.07;;
47882;SDS011;37739;50.350;7.578;2023-08-06T01:00:17;3.03;;;2.83;;
47882;SDS011;37739;50.350;7.578;2023-08-06T01:02:44;3.07;;;2.77;;
47882;SDS011;37739;50.350;7.578;2023-08-06T01:05:14;2.77;;;2.57;;
47882;SDS011;37739;50.350;7.578;2023-08-06T01:13:32;2.80;;;2.60;;
47882;SDS011;37739;50.350;7.578;2023-08-06T01:16:07;3.47;;;2.40;;
47882;SDS011;37739;50.350;7.578;2023-08-06T01:18:37;2.97;;;2.77;;
47882;SDS011;37739;50.350;7.578;2023-08-06T01:21:04;3.17;;;2.80;;
47882;SDS011;37739;50.350;7.578;2023-08-06T01:23:31;2.30;;;2.10;;
47882;SDS011;37739;50.350;7.578;2023-08-06T01:26:05;2.60;;;2.40;;
47882;SDS011;37739;50.350;7.578;2023-08-06T01:31:07;2.97;;;2.67;;
47882;SDS011;37739;50.350;7.578;2023-08-06T01:33:38;3.77;;;2.63;;
47882;SDS011;37739;50.350;7.578;2023-08-06T01:36:08;2.40;;;2.20;;
47882;SDS011;37739;50.350;7.578;2023-08-06T01:38:34;2.60;;;2.40;;
47882;SDS011;37739;50.350;7.578;2023-08-06T01:41:02;3.33;;;2.40;;
47882;SDS011;37739;50.350;7.578;2023-08-06T01:43:29;3.20;;;2.40;;
47882;SDS011;37739;50.350;7.578;2023-08-06T01:45:57;2.30;;;2.00;;
47882;SDS011;37739;50.350;7.578;2023-08-06T01:48:22;2.73;;;2.53;;
47882;SDS011;37739;50.350;7.578;2023-08-06T01:50:47;2.93;;;2.50;;
47882;SDS011;37739;50.350;7.578;2023-08-06T01:53:15;2.83;;;2.40;;
47882;SDS011;37739;50.350;7.578;2023-08-06T01:55:49;2.40;;;2.13;;
47882;SDS011;37739;50.350;7.578;2023-08-06T01:58:14;4.77;;;2.50;;
47882;SDS011;37739;50.350;7.578;2023-08-06T02:00:40;2.87;;;2.57;;
47882;SDS011;37739;50.350;7.578;2023-08-06T02:03:08;2.73;;;2.53;;
47882;SDS011;37739;50.350;7.578;2023-08-06T02:05:33;3.00;;;2.50;;
47882;SDS011;37739;50.350;7.578;2023-08-06T02:07:58;2.63;;;2.43;;
47882;SDS011;37739;50.350;7.578;2023-08-06T02:10:24;2.73;;;2.53;;
47882;SDS011;37739;50.350;7.578;2023-08-06T02:12:51;3.87;;;2.60;;
47882;SDS011;37739;50.350;7.578;2023-08-06T02:15:18;2.50;;;2.30;;
47882;SDS011;37739;50.350;7.578;2023-08-06T02:17:44;3.40;;;3.10;;
47882;SDS011;37739;50.350;7.578;2023-08-06T02:20:14;3.20;;;2.77;;
47882;SDS011;37739;50.350;7.578;2023-08-06T02:22:39;2.70;;;2.43;;
47882;SDS011;37739;50.350;7.578;2023-08-06T02:25:05;3.43;;;2.13;;
47882;SDS011;37739;50.350;7.578;2023-08-06T02:27:30;2.83;;;2.60;;
47882;SDS011;37739;50.350;7.578;2023-08-06T02:29:56;2.50;;;2.30;;
47882;SDS011;37739;50.350;7.578;2023-08-06T02:32:21;2.70;;;2.50;;
47882;SDS011;37739;50.350;7.578;2023-08-06T02:34:46;2.60;;;2.40;;
47882;SDS011;37739;50.350;7.578;2023-08-06T02:37:14;2.53;;;2.20;;
47882;SDS011;37739;50.350;7.578;2023-08-06T02:39:39;3.03;;;2.73;;
47882;SDS011;37739;50.350;7.578;2023-08-06T02:42:07;3.40;;;3.10;;
47882;SDS011;37739;50.350;7.578;2023-08-06T02:44:37;2.60;;;2.40;;
47882;SDS011;37739;50.350;7.578;2023-08-06T02:47:05;3.23;;;2.93;;
47882;SDS011;37739;50.350;7.578;2023-08-06T02:49:33;3.00;;;2.70;;
47882;SDS011;37739;50.350;7.578;2023-08-06T02:52:01;4.00;;;2.60;;
47882;SDS011;37739;50.350;7.578;2023-08-06T02:54:26;4.40;;;2.40;;
47882;SDS011;37739;50.350;7.578;2023-08-06T02:56:53;2.97;;;2.37;;
47882;SDS011;37739;50.350;7.578;2023-08-06T02:59:21;2.43;;;2.20;;
47882;SDS011;37739;50.350;7.578;2023-08-06T03:01:46;2.93;;;2.00;;
47882;SDS011;37739;50.350;7.578;2023-08-06T03:04:14;4.50;;;2.03;;
47882;SDS011;37739;50.350;7.578;2023-08-06T03:06:39;2.03;;;1.83;;
47882;SDS011;37739;50.350;7.578;2023-08-06T03:09:05;2.47;;;2.13;;
47882;SDS011;37739;50.350;7.578;2023-08-06T03:11:30;2.50;;;2.13;;
47882;SDS011;37739;50.350;7.578;2023-08-06T03:13:57;4.87;;;2.30;;
47882;SDS011;37739;50.350;7.578;2023-08-06T03:16:23;4.53;;;2.40;;
47882;SDS011;37739;50.350;7.578;2023-08-06T03:18:48;2.53;;;1.90;;
47882;SDS011;37739;50.350;7.578;2023-08-06T03:21:13;2.73;;;2.40;;
47882;SDS011;37739;50.350;7.578;2023-08-06T03:23:41;2.47;;;2.27;;
47882;SDS011;37739;50.350;7.578;2023-08-06T03:26:06;3.03;;;2.43;;
47882;SDS011;37739;50.350;7.578;2023-08-06T03:28:31;3.33;;;2.37;;
47882;SDS011;37739;50.350;7.578;2023-08-06T03:31:03;2.80;;;2.60;;
47882;SDS011;37739;50.350;7.578;2023-08-06T03:33:34;3.27;;;2.97;;
47882;SDS011;37739;50.350;7.578;2023-08-06T03:35:59;2.60;;;2.40;;
47882;SDS011;37739;50.350;7.578;2023-08-06T03:38:25;3.43;;;2.10;;
47882;SDS011;37739;50.350;7.578;2023-08-06T03:40:52;3.37;;;2.83;;
47882;SDS011;37739;50.350;7.578;2023-08-06T03:43:18;5.10;;;2.60;;
47882;SDS011;37739;50.350;7.578;2023-08-06T03:45:46;2.77;;;2.53;;
47882;SDS011;37739;50.350;7.578;2023-08-06T03:48:13;2.90;;;2.40;;
47882;SDS011;37739;50.350;7.578;2023-08-06T03:50:41;2.80;;;2.17;;
47882;SDS011;37739;50.350;7.578;2023-08-06T03:53:08;4.50;;;2.53;;
47882;SDS011;37739;50.350;7.578;2023-08-06T03:55:36;3.00;;;1.97;;
47882;SDS011;37739;50.350;7.578;2023-08-06T03:58:04;2.57;;;2.30;;
47882;SDS011;37739;50.350;7.578;2023-08-06T04:00:29;3.10;;;2.20;;
47882;SDS011;37739;50.350;7.578;2023-08-06T04:02:57;2.67;;;2.03;;
47882;SDS011;37739;50.350;7.578;2023-08-06T04:05:24;2.83;;;2.37;;
47882;SDS011;37739;50.350;7.578;2023-08-06T04:07:52;3.00;;;2.50;;
47882;SDS011;37739;50.350;7.578;2023-08-06T04:10:19;2.50;;;2.23;;
47882;SDS011;37739;50.350;7.578;2023-08-06T04:12:49;2.73;;;2.23;;
47882;SDS011;37739;50.350;7.578;2023-08-06T04:15:14;2.40;;;2.20;;
47882;SDS011;37739;50.350;7.578;2023-08-06T04:17:40;3.00;;;2.47;;
47882;SDS011;37739;50.350;7.578;2023-08-06T04:20:05;3.90;;;2.63;;
47882;SDS011;37739;50.350;7.578;2023-08-06T04:22:31;2.80;;;2.13;;
47882;SDS011;37739;50.350;7.578;2023-08-06T04:24:56;2.93;;;2.63;;
47882;SDS011;37739;50.350;7.578;2023-08-06T04:27:22;2.30;;;1.90;;
47882;SDS011;37739;50.350;7.578;2023-08-06T04:29:47;2.90;;;2.00;;
47882;SDS011;37739;50.350;7.578;2023-08-06T04:32:14;3.70;;;2.13;;
47882;SDS011;37739;50.350;7.578;2023-08-06T04:34:40;3.30;;;1.90;;
47882;SDS011;37739;50.350;7.578;2023-08-06T04:37:10;3.80;;;2.30;;
47882;SDS011;37739;50.350;7.578;2023-08-06T04:39:36;2.60;;;1.90;;
47882;SDS011;37739;50.350;7.578;2023-08-06T04:42:01;3.80;;;2.30;;
47882;SDS011;37739;50.350;7.578;2023-08-06T04:44:27;2.40;;;2.20;;
47882;SDS011;37739;50.350;7.578;2023-08-06T04:46:54;5.10;;;2.20;;
47882;SDS011;37739;50.350;7.578;2023-08-06T04:49:22;2.60;;;2.40;;
47882;SDS011;37739;50.350;7.578;2023-08-06T04:51:48;2.60;;;2.03;;
47882;SDS011;37739;50.350;7.578;2023-08-06T04:54:13;3.90;;;2.10;;
47882;SDS011;37739;50.350;7.578;2023-08-06T04:56:39;2.30;;;2.10;;
47882;SDS011;37739;50.350;7.578;2023-08-06T04:59:06;3.30;;;1.90;;
47882;SDS011;37739;50.350;7.578;2023-08-06T05:01:31;1.83;;;1.70;;
47882;SDS011;37739;50.350;7.578;2023-08-06T05:03:57;1.90;;;1.70;;
47882;SDS011;37739;50.350;7.578;2023-08-06T05:06:22;2.07;;;1.80;;
47882;SDS011;37739;50.350;7.578;2023-08-06T05:08:47;1.53;;;1.30;;
47882;SDS011;37739;50.350;7.578;2023-08-06T05:11:13;2.73;;;1.57;;
47882;SDS011;37739;50.350;7.578;2023-08-06T05:13:38;2.70;;;1.47;;
47882;SDS011;37739;50.350;7.578;2023-08-06T05:16:03;1.60;;;1.20;;
47882;SDS011;37739;50.350;7.578;2023-08-06T05:18:28;1.43;;;1.20;;
47882;SDS011;37739;50.350;7.578;2023-08-06T05:20:55;1.20;;;1.00;;
47882;SDS011;37739;50.350;7.578;2023-08-06T05:23:23;2.40;;;1.00;;
47882;SDS011;37739;50.350;7.578;2023-08-06T05:25:48;1.40;;;0.70;;
47882;SDS011;37739;50.350;7.578;2023-08-06T05:28:16;0.80;;;0.50;;
47882;SDS011;37739;50.350;7.578;2023-08-06T05:30:43;1.53;;;0.50;;
47882;SDS011;37739;50.350;7.578;2023-08-06T05:33:13;3.20;;;0.60;;
47882;SDS011;37739;50.350;7.578;2023-08-06T05:35:40;0.87;;;0.50;;
47882;SDS011;37739;50.350;7.578;2023-08-06T05:38:06;0.73;;;0.40;;
47882;SDS011;37739;50.350;7.578;2023-08-06T05:40:33;0.97;;;0.40;;
47882;SDS011;37739;50.350;7.578;2023-08-06T05:43:03;0.70;;;0.30;;
47882;SDS011;37739;50.350;7.578;2023-08-06T05:45:28;0.70;;;0.40;;
47882;SDS011;37739;50.350;7.578;2023-08-06T05:47:54;1.13;;;0.60;;
47882;SDS011;37739;50.350;7.578;2023-08-06T05:50:22;1.00;;;0.60;;
47882;SDS011;37739;50.350;7.578;2023-08-06T05:52:48;0.70;;;0.30;;
47882;SDS011;37739;50.350;7.578;2023-08-06T05:55:13;1.40;;;0.50;;
47882;SDS011;37739;50.350;7.578;2023-08-06T05:57:38;0.70;;;0.30;;
47882;SDS011;37739;50.350;7.578;2023-08-06T06:00:04;0.70;;;0.40;;
47882;SDS011;37739;50.350;7.578;2023-08-06T06:02:31;0.73;;;0.30;;
47882;SDS011;37739;50.350;7.578;2023-08-06T06:04:59;0.67;;;0.30;;
47882;SDS011;37739;50.350;7.578;2023-08-06T06:07:24;0.83;;;0.40;;
47882;SDS011;37739;50.350;7.578;2023-08-06T06:09:51;1.07;;;0.40;;
47882;SDS011;37739;50.350;7.578;2023-08-06T06:12:17;0.90;;;0.30;;
47882;SDS011;37739;50.350;7.578;2023-08-06T06:14:43;1.33;;;0.47;;
47882;SDS011;37739;50.350;7.578;2023-08-06T06:17:10;1.20;;;0.50;;
47882;SDS011;37739;50.350;7.578;2023-08-06T06:19:41;0.70;;;0.30;;
47882;SDS011;37739;50.350;7.578;2023-08-06T06:22:07;0.80;;;0.30;;
47882;SDS011;37739;50.350;7.578;2023-08-06T06:24:34;1.50;;;0.40;;
47882;SDS011;37739;50.350;7.578;2023-08-06T06:27:00;0.80;;;0.40;;
47882;SDS011;37739;50.350;7.578;2023-08-06T06:29:27;0.90;;;0.30;;
47882;SDS011;37739;50.350;7.578;2023-08-06T06:31:53;1.33;;;0.40;;
47882;SDS011;37739;50.350;7.578;2023-08-06T06:34:20;0.90;;;0.50;;
47882;SDS011;37739;50.350;7.578;2023-08-06T06:36:47;0.70;;;0.40;;
47882;SDS011;37739;50.350;7.578;2023-08-06T06:39:17;0.90;;;0.50;;
47882;SDS011;37739;50.350;7.578;2023-08-06T06:41:42;0.80;;;0.43;;
47882;SDS011;37739;50.350;7.578;2023-08-06T06:44:09;0.90;;;0.37;;
47882;SDS011;37739;50.350;7.578;2023-08-06T06:46:34;0.70;;;0.40;;
47882;SDS011;37739;50.350;7.578;2023-08-06T06:49:04;0.80;;;0.40;;
47882;SDS011;37739;50.350;7.578;2023-08-06T06:51:32;0.93;;;0.40;;
47882;SDS011;37739;50.350;7.578;2023-08-06T06:53:57;0.70;;;0.40;;
47882;SDS011;37739;50.350;7.578;2023-08-06T06:56:25;1.00;;;0.40;;
47882;SDS011;37739;50.350;7.578;2023-08-06T06:58:50;1.03;;;0.40;;
47882;SDS011;37739;50.350;7.578;2023-08-06T07:01:16;0.90;;;0.50;;
47882;SDS011;37739;50.350;7.578;2023-08-06T07:03:41;1.63;;;0.80;;
47882;SDS011;37739;50.350;7.578;2023-08-06T07:06:06;0.87;;;0.70;;
47882;SDS011;37739;50.350;7.578;2023-08-06T07:08:32;1.60;;;0.60;;
47882;SDS011;37739;50.350;7.578;2023-08-06T07:11:04;1.27;;;0.60;;
47882;SDS011;37739;50.350;7.578;2023-08-06T07:13:31;0.90;;;0.47;;
47882;SDS011;37739;50.350;7.578;2023-08-06T07:15:57;0.80;;;0.40;;
47882;SDS011;37739;50.350;7.578;2023-08-06T07:18:28;1.10;;;0.40;;
47882;SDS011;37739;50.350;7.578;2023-08-06T07:20:54;1.10;;;0.50;;
47882;SDS011;37739;50.350;7.578;2023-08-06T07:23:23;0.70;;;0.40;;
47882;SDS011;37739;50.350;7.578;2023-08-06T07:25:52;0.80;;;0.40;;
47882;SDS011;37739;50.350;7.578;2023-08-06T07:28:20;0.80;;;0.40;;
47882;SDS011;37739;50.350;7.578;2023-08-06T07:30:45;0.90;;;0.40;;
47882;SDS011;37739;50.350;7.578;2023-08-06T07:33:13;0.80;;;0.40;;
47882;SDS011;37739;50.350;7.578;2023-08-06T07:35:38;0.70;;;0.40;;
47882;SDS011;37739;50.350;7.578;2023-08-06T07:38:06;0.80;;;0.40;;
47882;SDS011;37739;50.350;7.578;2023-08-06T07:40:31;0.83;;;0.50;;
47882;SDS011;37739;50.350;7.578;2023-08-06T07:43:00;1.40;;;0.50;;
47882;SDS011;37739;50.350;7.578;2023-08-06T07:45:27;0.80;;;0.40;;
47882;SDS011;37739;50.350;7.578;2023-08-06T07:47:55;1.50;;;0.40;;
47882;SDS011;37739;50.350;7.578;2023-08-06T07:50:20;1.10;;;0.43;;
47882;SDS011;37739;50.350;7.578;2023-08-06T07:52:48;0.73;;;0.43;;
47882;SDS011;37739;50.350;7.578;2023-08-06T07:55:13;0.80;;;0.43;;
47882;SDS011;37739;50.350;7.578;2023-08-06T07:57:41;1.10;;;0.50;;
47882;SDS011;37739;50.350;7.578;2023-08-06T08:00:08;0.80;;;0.40;;
47882;SDS011;37739;50.350;7.578;2023-08-06T08:02:34;1.00;;;0.40;;
47882;SDS011;37739;50.350;7.578;2023-08-06T08:05:02;0.80;;;0.40;;
47882;SDS011;37739;50.350;7.578;2023-08-06T08:07:28;0.73;;;0.47;;
47882;SDS011;37739;50.350;7.578;2023-08-06T08:09:55;0.90;;;0.40;;
47882;SDS011;37739;50.350;7.578;2023-08-06T08:12:23;0.70;;;0.40;;
47882;SDS011;37739;50.350;7.578;2023-08-06T08:14:49;0.87;;;0.50;;
47882;SDS011;37739;50.350;7.578;2023-08-06T08:17:16;1.27;;;0.40;;
47882;SDS011;37739;50.350;7.578;2023-08-06T08:19:44;0.80;;;0.60;;
47882;SDS011;37739;50.350;7.578;2023-08-06T08:22:09;1.00;;;0.50;;
47882;SDS011;37739;50.350;7.578;2023-08-06T08:24:34;0.93;;;0.50;;
47882;SDS011;37739;50.350;7.578;2023-08-06T08:27:00;0.80;;;0.40;;
47882;SDS011;37739;50.350;7.578;2023-08-06T08:29:25;0.60;;;0.30;;
47882;SDS011;37739;50.350;7.578;2023-08-06T08:31:50;1.17;;;0.40;;
47882;SDS011;37739;50.350;7.578;2023-08-06T08:34:16;0.87;;;0.53;;
47882;SDS011;37739;50.350;7.578;2023-08-06T08:36:44;1.00;;;0.40;;
47882;SDS011;37739;50.350;7.578;2023-08-06T08:39:13;0.80;;;0.30;;
47882;SDS011;37739;50.350;7.578;2023-08-06T08:41:38;1.43;;;0.50;;
47882;SDS011;37739;50.350;7.578;2023-08-06T08:44:04;0.80;;;0.33;;
47882;SDS011;37739;50.350;7.578;2023-08-06T08:46:36;0.70;;;0.30;;
47882;SDS011;37739;50.350;7.578;2023-08-06T08:49:05;0.70;;;0.40;;
47882;SDS011;37739;50.350;7.578;2023-08-06T08:51:31;0.80;;;0.40;;
47882;SDS011;37739;50.350;7.578;2023-08-06T08:53:58;0.60;;;0.30;;
47882;SDS011;37739;50.350;7.578;2023-08-06T08:56:25;0.87;;;0.50;;
47882;SDS011;37739;50.350;7.578;2023-08-06T08:58:53;0.90;;;0.40;;
47882;SDS011;37739;50.350;7.578;2023-08-06T09:01:22;0.60;;;0.30;;
47882;SDS011;37739;50.350;7.578;2023-08-06T09:03:48;1.27;;;0.40;;
47882;SDS011;37739;50.350;7.578;2023-08-06T09:06:14;0.90;;;0.40;;
47882;SDS011;37739;50.350;7.578;2023-08-06T09:08:54;0.90;;;0.37;;
47882;SDS011;37739;50.350;7.578;2023-08-06T09:11:29;0.70;;;0.40;;
47882;SDS011;37739;50.350;7.578;2023-08-06T09:14:04;0.80;;;0.50;;
47882;SDS011;37739;50.350;7.578;2023-08-06T09:16:33;0.70;;;0.30;;
47882;SDS011;37739;50.350;7.578;2023-08-06T09:19:06;0.60;;;0.30;;
47882;SDS011;37739;50.350;7.578;2023-08-06T09:21:40;0.70;;;0.30;;
47882;SDS011;37739;50.350;7.578;2023-08-06T09:24:11;1.10;;;0.60;;
47882;SDS011;37739;50.350;7.578;2023-08-06T09:26:37;1.10;;;0.80;;
47882;SDS011;37739;50.350;7.578;2023-08-06T09:29:05;1.20;;;0.50;;
47882;SDS011;37739;50.350;7.578;2023-08-06T09:31:33;1.97;;;0.73;;
47882;SDS011;37739;50.350;7.578;2023-08-06T09:36:41;0.80;;;0.40;;
47882;SDS011;37739;50.350;7.578;2023-08-06T09:39:17;1.03;;;0.60;;
47882;SDS011;37739;50.350;7.578;2023-08-06T09:41:43;1.30;;;0.67;;
47882;SDS011;37739;50.350;7.578;2023-08-06T09:44:18;0.80;;;0.47;;
47882;SDS011;37739;50.350;7.578;2023-08-06T09:49:24;1.03;;;0.60;;
47882;SDS011;37739;50.350;7.578;2023-08-06T09:51:52;1.13;;;0.70;;
47882;SDS011;37739;50.350;7.578;2023-08-06T09:54:20;1.00;;;0.60;;
47882;SDS011;37739;50.350;7.578;2023-08-06T09:56:47;1.20;;;0.70;;
47882;SDS011;37739;50.350;7.578;2023-08-06T09:59:13;1.10;;;0.70;;
47882;SDS011;37739;50.350;7.578;2023-08-06T10:01:41;1.70;;;0.70;;
47882;SDS011;37739;50.350;7.578;2023-08-06T10:04:06;1.20;;;0.77;;
47882;SDS011;37739;50.350;7.578;2023-08-06T10:06:40;1.30;;;0.80;;
47882;SDS011;37739;50.350;7.578;2023-08-06T10:09:08;0.90;;;0.77;;
47882;SDS011;37739;50.350;7.578;2023-08-06T10:11:37;0.90;;;0.77;;
47882;SDS011;37739;50.350;7.578;2023-08-06T10:14:06;1.20;;;0.90;;
47882;SDS011;37739;50.350;7.578;2023-08-06T10:16:36;1.33;;;0.70;;
47882;SDS011;37739;50.350;7.578;2023-08-06T10:19:04;0.90;;;0.53;;
47882;SDS011;37739;50.350;7.578;2023-08-06T10:21:33;0.83;;;0.57;;
47882;SDS011;37739;50.350;7.578;2023-08-06T10:23:58;0.87;;;0.50;;
47882;SDS011;37739;50.350;7.578;2023-08-06T10:26:30;0.90;;;0.50;;
47882;SDS011;37739;50.350;7.578;2023-08-06T10:28:55;1.00;;;0.50;;
47882;SDS011;37739;50.350;7.578;2023-08-06T10:34:22;0.70;;;0.40;;
47882;SDS011;37739;50.350;7.578;2023-08-06T10:36:48;0.80;;;0.43;;
47882;SDS011;37739;50.350;7.578;2023-08-06T10:39:13;1.03;;;0.67;;
47882;SDS011;37739;50.350;7.578;2023-08-06T10:41:39;1.50;;;0.40;;
47882;SDS011;37739;50.350;7.578;2023-08-06T10:44:08;0.80;;;0.40;;
47882;SDS011;37739;50.350;7.578;2023-08-06T10:46:34;0.90;;;0.50;;
47882;SDS011;37739;50.350;7.578;2023-08-06T10:49:00;1.30;;;0.43;;
47882;SDS011;37739;50.350;7.578;2023-08-06T10:51:26;0.93;;;0.50;;
47882;SDS011;37739;50.350;7.578;2023-08-06T10:53:55;0.80;;;0.33;;
47882;SDS011;37739;50.350;7.578;2023-08-06T10:56:23;0.90;;;0.40;;
47882;SDS011;37739;50.350;7.578;2023-08-06T10:58:53;1.43;;;0.43;;
47882;SDS011;37739;50.350;7.578;2023-08-06T11:01:22;0.77;;;0.40;;
47882;SDS011;37739;50.350;7.578;2023-08-06T11:03:50;1.33;;;0.53;;
47882;SDS011;37739;50.350;7.578;2023-08-06T11:06:20;1.33;;;0.50;;
47882;SDS011;37739;50.350;7.578;2023-08-06T11:08:50;1.17;;;0.50;;
47882;SDS011;37739;50.350;7.578;2023-08-06T11:11:17;1.20;;;0.67;;
47882;SDS011;37739;50.350;7.578;2023-08-06T11:13:45;0.80;;;0.40;;
47882;SDS011;37739;50.350;7.578;2023-08-06T11:16:17;1.97;;;0.60;;
47882;SDS011;37739;50.350;7.578;2023-08-06T11:18:43;0.80;;;0.53;;
47882;SDS011;37739;50.350;7.578;2023-08-06T11:21:09;1.63;;;0.40;;
47882;SDS011;37739;50.350;7.578;2023-08-06T11:23:35;1.10;;;0.60;;
47882;SDS011;37739;50.350;7.578;2023-08-06T11:26:01;1.63;;;0.80;;
47882;SDS011;37739;50.350;7.578;2023-08-06T11:28:31;1.47;;;0.73;;
47882;SDS011;37739;50.350;7.578;2023-08-06T11:30:57;1.67;;;0.67;;
47882;SDS011;37739;50.350;7.578;2023-08-06T11:33:26;0.80;;;0.40;;
47882;SDS011;37739;50.350;7.578;2023-08-06T11:35:53;1.40;;;0.57;;
47882;SDS011;37739;50.350;7.578;2023-08-06T11:38:24;1.20;;;0.63;;
47882;SDS011;37739;50.350;7.578;2023-08-06T11:40:52;1.30;;;0.60;;
47882;SDS011;37739;50.350;7.578;2023-08-06T11:43:20;1.53;;;0.80;;
47882;SDS011;37739;50.350;7.578;2023-08-06T11:45:47;0.80;;;0.40;;
47882;SDS011;37739;50.350;7.578;2023-08-06T11:48:21;1.53;;;0.77;;
47882;SDS011;37739;50.350;7.578;2023-08-06T11:50:47;1.17;;;0.60;;
47882;SDS011;37739;50.350;7.578;2023-08-06T11:53:13;1.80;;;0.90;;
47882;SDS011;37739;50.350;7.578;2023-08-06T11:55:39;1.33;;;0.60;;
47882;SDS011;37739;50.350;7.578;2023-08-06T11:58:05;1.03;;;0.40;;
47882;SDS011;37739;50.350;7.578;2023-08-06T12:00:30;1.00;;;0.50;;
47882;SDS011;37739;50.350;7.578;2023-08-06T12:02:59;0.90;;;0.50;;
47882;SDS011;37739;50.350;7.578;2023-08-06T12:05:33;1.13;;;0.50;;
47882;SDS011;37739;50.350;7.578;2023-08-06T12:07:59;0.80;;;0.40;;
47882;SDS011;37739;50.350;7.578;2023-08-06T12:10:26;0.97;;;0.53;;
47882;SDS011;37739;50.350;7.578;2023-08-06T12:12:53;0.80;;;0.40;;
47882;SDS011;37739;50.350;7.578;2023-08-06T12:15:19;1.10;;;0.63;;
47882;SDS011;37739;50.350;7.578;2023-08-06T12:17:45;1.10;;;0.50;;
47882;SDS011;37739;50.350;7.578;2023-08-06T12:20:13;0.80;;;0.50;;
47882;SDS011;37739;50.350;7.578;2023-08-06T12:22:39;1.27;;;0.60;;
47882;SDS011;37739;50.350;7.578;2023-08-06T12:25:07;1.00;;;0.40;;
47882;SDS011;37739;50.350;7.578;2023-08-06T12:27:37;1.97;;;0.50;;
47882;SDS011;37739;50.350;7.578;2023-08-06T12:30:06;1.67;;;0.50;;
47882;SDS011;37739;50.350;7.578;2023-08-06T12:32:32;2.47;;;0.77;;
47882;SDS011;37739;50.350;7.578;2023-08-06T12:34:58;1.00;;;0.57;;
47882;SDS011;37739;50.350;7.578;2023-08-06T12:37:24;0.93;;;0.60;;
47882;SDS011;37739;50.350;7.578;2023-08-06T12:39:52;1.60;;;0.50;;
47882;SDS011;37739;50.350;7.578;2023-08-06T12:42:18;1.30;;;0.67;;
47882;SDS011;37739;50.350;7.578;2023-08-06T12:44:50;0.97;;;0.60;;
47882;SDS011;37739;50.350;7.578;2023-08-06T12:47:17;1.00;;;0.60;;
47882;SDS011;37739;50.350;7.578;2023-08-06T12:49:43;0.90;;;0.40;;
47882;SDS011;37739;50.350;7.578;2023-08-06T12:52:09;1.00;;;0.60;;
47882;SDS011;37739;50.350;7.578;2023-08-06T12:54:34;1.20;;;0.50;;
47882;SDS011;37739;50.350;7.578;2023-08-06T12:57:04;1.70;;;0.60;;
47882;SDS011;37739;50.350;7.578;2023-08-06T12:59:32;1.10;;;0.70;;
47882;SDS011;37739;50.350;7.578;2023-08-06T13:01:58;1.20;;;0.57;;
47882;SDS011;37739;50.350;7.578;2023-08-06T13:04:26;1.07;;;0.60;;
47882;SDS011;37739;50.350;7.578;2023-08-06T13:06:52;1.40;;;0.80;;
47882;SDS011;37739;50.350;7.578;2023-08-06T13:09:18;1.77;;;0.90;;
47882;SDS011;37739;50.350;7.578;2023-08-06T13:11:44;1.53;;;0.70;;
47882;SDS011;37739;50.350;7.578;2023-08-06T13:14:17;2.23;;;0.80;;
47882;SDS011;37739;50.350;7.578;2023-08-06T13:16:43;2.20;;;0.80;;
47882;SDS011;37739;50.350;7.578;2023-08-06T13:19:09;1.33;;;0.70;;
47882;SDS011;37739;50.350;7.578;2023-08-06T13:24:23;1.40;;;0.60;;
47882;SDS011;37739;50.350;7.578;2023-08-06T13:26:49;0.83;;;0.57;;
47882;SDS011;37739;50.350;7.578;2023-08-06T13:29:22;1.10;;;0.70;;
47882;SDS011;37739;50.350;7.578;2023-08-06T13:31:47;1.80;;;0.70;;
47882;SDS011;37739;50.350;7.578;2023-08-06T13:34:15;2.60;;;1.23;;
47882;SDS011;37739;50.350;7.578;2023-08-06T13:36:41;0.80;;;0.63;;
47882;SDS011;37739;50.350;7.578;2023-08-06T13:39:09;1.10;;;0.60;;
47882;SDS011;37739;50.350;7.578;2023-08-06T13:41:38;1.37;;;0.70;;
47882;SDS011;37739;50.350;7.578;2023-08-06T13:44:05;1.40;;;0.70;;
47882;SDS011;37739;50.350;7.578;2023-08-06T13:46:31;0.93;;;0.63;;
47882;SDS011;37739;50.350;7.578;2023-08-06T13:48:57;1.33;;;0.80;;
47882;SDS011;37739;50.350;7.578;2023-08-06T13:51:24;1.43;;;0.60;;
47882;SDS011;37739;50.350;7.578;2023-08-06T13:53:50;1.00;;;0.50;;
47882;SDS011;37739;50.350;7.578;2023-08-06T13:56:19;1.30;;;0.60;;
47882;SDS011;37739;50.350;7.578;2023-08-06T13:58:44;0.80;;;0.40;;
47882;SDS011;37739;50.350;7.578;2023-08-06T14:01:10;1.13;;;0.40;;
47882;SDS011;37739;50.350;7.578;2023-08-06T14:03:36;0.80;;;0.50;;
47882;SDS011;37739;50.350;7.578;2023-08-06T14:06:01;1.00;;;0.43;;
47882;SDS011;37739;50.350;7.578;2023-08-06T14:08:29;0.90;;;0.50;;
47882;SDS011;37739;50.350;7.578;2023-08-06T14:10:54;2.33;;;0.70;;
47882;SDS011;37739;50.350;7.578;2023-08-06T14:13:21;1.33;;;0.40;;
47882;SDS011;37739;50.350;7.578;2023-08-06T14:15:47;1.27;;;0.50;;
47882;SDS011;37739;50.350;7.578;2023-08-06T14:18:13;1.67;;;0.80;;
47882;SDS011;37739;50.350;7.578;2023-08-06T14:20:39;1.30;;;0.50;;
47882;SDS011;37739;50.350;7.578;2023-08-06T14:23:06;0.80;;;0.53;;
47882;SDS011;37739;50.350;7.578;2023-08-06T14:25:34;1.47;;;0.60;;
47882;SDS011;37739;50.350;7.578;2023-08-06T14:27:59;1.17;;;0.40;;
47882;SDS011;37739;50.350;7.578;2023-08-06T14:30:27;1.47;;;0.40;;
47882;SDS011;37739;50.350;7.578;2023-08-06T14:32:57;1.20;;;0.57;;
47882;SDS011;37739;50.350;7.578;2023-08-06T14:35:23;0.80;;;0.60;;
47882;SDS011;37739;50.350;7.578;2023-08-06T14:37:49;0.70;;;0.50;;
47882;SDS011;37739;50.350;7.578;2023-08-06T14:40:14;1.10;;;0.50;;
47882;SDS011;37739;50.350;7.578;2023-08-06T14:42:41;1.73;;;0.60;;
47882;SDS011;37739;50.350;7.578;2023-08-06T14:45:07;0.90;;;0.50;;
47882;SDS011;37739;50.350;7.578;2023-08-06T14:47:32;2.87;;;0.43;;
47882;SDS011;37739;50.350;7.578;2023-08-06T14:50:02;0.80;;;0.50;;
47882;SDS011;37739;50.350;7.578;2023-08-06T14:52:28;0.83;;;0.47;;
47882;SDS011;37739;50.350;7.578;2023-08-06T14:54:56;1.30;;;0.50;;
47882;SDS011;37739;50.350;7.578;2023-08-06T14:57:36;0.83;;;0.43;;
47882;SDS011;37739;50.350;7.578;2023-08-06T15:00:04;1.37;;;0.60;;
47882;SDS011;37739;50.350;7.578;2023-08-06T15:02:31;2.63;;;0.50;;
47882;SDS011;37739;50.350;7.578;2023-08-06T15:04:59;1.03;;;0.47;;
47882;SDS011;37739;50.350;7.578;2023-08-06T15:07:28;0.80;;;0.40;;